createdAt,value
2022-08-27T09:00:24.439Z,20064
2022-08-27T09:01:27.356Z,18260
2022-08-27T09:02:31.038Z,17688
2022-08-27T09:03:34.359Z,16012
2022-08-27T09:04:37.966Z,12868
2022-08-27T09:05:40.843Z,9772
2022-08-27T09:06:44.089Z,7776
2022-08-27T09:07:47.352Z,7052
2022-08-27T09:08:50.500Z,6696
2022-08-27T09:09:53.901Z,6448
2022-08-27T09:10:57.729Z,6936
2022-08-27T09:12:01.054Z,6120
2022-08-27T09:13:03.643Z,5256
2022-08-27T09:14:08.338Z,4844
2022-08-27T09:15:15.849Z,5028
2022-08-27T09:16:19.376Z,4944
2022-08-27T09:17:23.193Z,4696
2022-08-27T09:18:31.664Z,4488
2022-08-27T09:19:35.059Z,4704
2022-08-27T09:20:39.322Z,4672
2022-08-27T09:21:44.929Z,4620
2022-08-27T09:22:48.166Z,4936
2022-08-27T09:23:51.316Z,6376
2022-08-27T09:24:54.730Z,7044
2022-08-27T09:25:57.427Z,6596
2022-08-27T09:27:00.295Z,5552
2022-08-27T09:28:03.076Z,5180
2022-08-27T09:29:06.529Z,7184
2022-08-27T09:30:09.665Z,7764
2022-08-27T09:31:13.674Z,7332
2022-08-27T09:32:17.221Z,6272
2022-08-27T09:33:20.451Z,5496
2022-08-27T09:34:23.612Z,5408
2022-08-27T09:35:27.115Z,4792
2022-08-27T09:36:30.082Z,4372
2022-08-27T09:37:33.984Z,4176
2022-08-27T09:38:37.279Z,4640
2022-08-27T09:39:40.160Z,4900
2022-08-27T09:40:42.419Z,5036
2022-08-27T09:41:46.003Z,4936
2022-08-27T09:42:49.798Z,4316
2022-08-27T09:43:52.978Z,4340
2022-08-27T09:44:55.845Z,4648
2022-08-27T09:45:59.416Z,4860
2022-08-27T10:47:51.850Z,5736
2022-08-27T10:48:54.626Z,5420
2022-08-27T10:49:57.479Z,4500
2022-08-27T17:04:05.004Z,824
2022-08-27T17:06:12.581Z,928
2022-08-27T17:07:16.011Z,1084
